createdAt,value
2022-09-28T00:02:25.541Z,16.36
2022-09-28T00:04:53.349Z,16.25
2022-09-28T00:07:22.446Z,16.16
2022-09-28T00:09:50.118Z,16.27
2022-09-28T00:12:18.373Z,16.46
2022-09-28T00:14:46.170Z,16.61
2022-09-28T00:17:15.732Z,16.31
2022-09-28T00:19:44.814Z,16.53
2022-09-28T00:22:12.557Z,16.36
2022-09-28T00:24:41.806Z,16.33
2022-09-28T00:27:09.518Z,16.40
2022-09-28T00:29:38.403Z,16.43
2022-09-28T00:32:08.379Z,16.21
2022-09-28T00:34:37.848Z,16.29
2022-09-28T00:37:08.779Z,16.39
2022-09-28T00:39:38.247Z,16.52
2022-09-28T00:42:14.359Z,16.47
2022-09-28T00:44:48.980Z,16.65
2022-09-28T00:47:34.861Z,16.45
2022-09-28T00:50:06.901Z,16.28
2022-09-28T00:52:40.572Z,16.31
2022-09-28T00:55:13.337Z,16.37
2022-09-28T00:57:45.600Z,16.41
2022-09-28T01:00:14.788Z,16.67
2022-09-28T01:02:43.376Z,16.58
2022-09-28T01:05:12.438Z,16.47
2022-09-28T01:07:40.915Z,16.54
2022-09-28T01:10:09.781Z,16.56
2022-09-28T01:12:37.656Z,16.48
2022-09-28T01:15:07.658Z,16.32
2022-09-28T01:17:49.862Z,16.20
2022-09-28T01:20:32.893Z,16.55
2022-09-28T01:23:21.841Z,16.64
2022-09-28T01:25:55.883Z,16.78
2022-09-28T01:28:28.606Z,16.70
2022-09-28T01:31:06.595Z,16.67
2022-09-28T01:33:39.975Z,16.72
2022-09-28T01:36:13.064Z,16.49
2022-09-28T01:38:45.867Z,16.62
2022-09-28T01:41:17.490Z,16.84
2022-09-28T01:43:51.541Z,16.71
2022-09-28T01:46:22.916Z,16.60
2022-09-28T01:48:55.550Z,16.66
2022-09-28T01:51:30.275Z,16.64
2022-09-28T01:54:03.117Z,16.62
2022-09-28T01:56:38.373Z,16.71
2022-09-28T01:59:13.272Z,16.89
2022-09-28T02:01:45.359Z,16.72
2022-09-28T02:04:17.749Z,16.67
2022-09-28T02:06:50.016Z,16.52
2022-09-28T02:09:23.444Z,16.51
2022-09-28T02:11:56.238Z,16.63
2022-09-28T02:14:27.442Z,16.46
2022-09-28T02:16:56.429Z,16.64
2022-09-28T02:19:26.492Z,16.28
2022-09-28T02:21:59.925Z,16.12
2022-09-28T02:24:33.433Z,16.04
2022-09-28T02:27:07.403Z,16.44
2022-09-28T02:29:36.493Z,16.44
2022-09-28T02:32:04.170Z,16.15
2022-09-28T02:34:31.892Z,15.49
2022-09-28T02:36:59.817Z,15.38
2022-09-28T02:39:27.730Z,15.22
2022-09-28T02:42:07.508Z,15.08
2022-09-28T02:44:49.629Z,14.99
2022-09-28T02:47:28.132Z,15.07
2022-09-28T02:50:05.486Z,15.01
2022-09-28T02:52:51.502Z,14.96
2022-09-28T02:55:25.459Z,14.57
2022-09-28T02:58:21.491Z,14.84
2022-09-28T03:00:59.208Z,14.55
2022-09-28T03:03:33.864Z,14.50
2022-09-28T03:06:04.716Z,14.57
2022-09-28T03:08:38.466Z,14.50
2022-09-28T03:11:10.972Z,14.54
2022-09-28T03:13:39.236Z,14.61
2022-09-28T03:16:14.626Z,14.62
2022-09-28T03:18:43.082Z,14.46
2022-09-28T03:21:12.752Z,14.41
2022-09-28T03:23:41.182Z,14.45
2022-09-28T03:26:08.937Z,14.51
2022-09-28T03:28:36.826Z,14.50
2022-09-28T03:31:04.619Z,14.44
2022-09-28T03:33:33.719Z,14.59
2022-09-28T03:36:01.651Z,14.65
2022-09-28T03:38:29.356Z,14.59
2022-09-28T03:40:58.012Z,14.50
2022-09-28T03:43:27.086Z,14.55
2022-09-28T03:45:55.896Z,14.56
2022-09-28T03:48:27.647Z,14.54
2022-09-28T03:51:01.273Z,14.45
2022-09-28T03:53:29.931Z,14.69
2022-09-28T03:56:03.304Z,14.70
2022-09-28T03:58:31.160Z,14.81
2022-09-28T04:01:03.608Z,14.66
2022-09-28T04:03:31.557Z,14.77
2022-09-28T04:06:01.013Z,14.73
2022-09-28T04:08:28.779Z,14.72
2022-09-28T04:10:58.318Z,14.74
2022-09-28T04:13:26.414Z,14.61
2022-09-28T04:15:55.354Z,14.63
2022-09-28T04:18:23.929Z,14.70
2022-09-28T04:21:03.472Z,14.63
2022-09-28T04:23:31.615Z,14.68
2022-09-28T04:25:59.717Z,14.77
2022-09-28T04:28:45.062Z,14.65
2022-09-28T04:31:15.767Z,14.72
2022-09-28T04:33:43.493Z,14.76
2022-09-28T04:36:12.797Z,14.77
2022-09-28T04:38:52.902Z,14.79
2022-09-28T04:41:22.433Z,14.59
2022-09-28T04:43:50.897Z,14.56
2022-09-28T04:46:19.020Z,14.59
2022-09-28T04:48:46.905Z,14.77
2022-09-28T04:51:16.168Z,14.81
2022-09-28T04:53:43.874Z,14.71
2022-09-28T04:56:13.597Z,14.49
2022-09-28T04:58:41.789Z,14.58
2022-09-28T05:01:12.284Z,14.82
2022-09-28T05:03:40.217Z,14.70
2022-09-28T05:06:08.272Z,14.77
2022-09-28T05:08:37.419Z,14.82
2022-09-28T05:11:07.269Z,14.71
2022-09-28T05:13:41.638Z,14.71
2022-09-28T05:16:10.534Z,14.76
2022-09-28T05:18:38.439Z,14.65
2022-09-28T05:21:10.108Z,14.80
2022-09-28T05:23:39.228Z,14.68
2022-09-28T05:26:07.338Z,14.73
2022-09-28T05:28:35.307Z,14.66
2022-09-28T05:31:04.808Z,14.76
2022-09-28T05:33:33.849Z,14.74
2022-09-28T05:36:02.142Z,14.65
2022-09-28T05:38:30.772Z,14.72
2022-09-28T05:41:03.201Z,14.79
2022-09-28T05:43:33.544Z,14.74
2022-09-28T05:46:01.471Z,14.66
2022-09-28T05:48:29.745Z,14.52
2022-09-28T05:50:58.586Z,14.57
2022-09-28T05:53:26.496Z,14.56
2022-09-28T05:55:54.261Z,14.67
2022-09-28T05:58:23.407Z,14.79
2022-09-28T06:00:55.521Z,14.71
2022-09-28T06:03:23.250Z,14.48
2022-09-28T06:05:51.090Z,14.47
2022-09-28T06:08:18.770Z,14.39
2022-09-28T06:10:46.595Z,14.38
2022-09-28T06:13:14.509Z,14.46
2022-09-28T06:15:46.241Z,14.62
2022-09-28T06:18:15.367Z,14.68
2022-09-28T06:20:43.954Z,14.67
2022-09-28T06:23:13.116Z,14.75
2022-09-28T06:25:40.873Z,14.72
2022-09-28T06:28:11.788Z,14.57
2022-09-28T06:30:40.259Z,14.52
2022-09-28T06:33:12.511Z,14.59
2022-09-28T06:35:40.592Z,14.28
2022-09-28T06:38:08.253Z,14.57
2022-09-28T06:40:36.585Z,14.56
2022-09-28T06:43:09.912Z,14.57
2022-09-28T06:45:38.755Z,14.55
2022-09-28T06:48:07.129Z,14.46
2022-09-28T06:50:38.350Z,14.33
2022-09-28T06:53:07.600Z,14.16
2022-09-28T06:55:35.273Z,13.83
2022-09-28T06:58:04.797Z,13.79
2022-09-28T07:00:34.571Z,13.68
2022-09-28T07:03:03.937Z,13.90
2022-09-28T07:05:34.871Z,13.92
2022-09-28T07:08:05.124Z,14.20
2022-09-28T07:10:33.357Z,14.22
2022-09-28T07:13:03.591Z,14.22
2022-09-28T07:15:32.421Z,14.25
2022-09-28T07:18:03.496Z,14.20
2022-09-28T07:20:36.640Z,14.17
2022-09-28T07:23:19.058Z,14.18
2022-09-28T07:25:50.223Z,14.32
2022-09-28T07:28:18.290Z,14.48
2022-09-28T07:30:46.027Z,14.24
2022-09-28T07:33:15.831Z,14.43
2022-09-28T07:35:50.673Z,14.54
2022-09-28T07:38:19.965Z,14.43
2022-09-28T07:41:05.565Z,14.42
2022-09-28T07:43:33.674Z,14.45
2022-09-28T07:46:01.419Z,14.54
2022-09-28T07:48:36.692Z,14.62
2022-09-28T07:51:05.217Z,14.47
2022-09-28T07:53:34.490Z,14.73
2022-09-28T07:56:07.234Z,14.61
2022-09-28T07:58:35.983Z,14.61
2022-09-28T08:01:06.414Z,14.66
2022-09-28T08:03:34.866Z,14.50
2022-09-28T08:06:04.293Z,14.79
2022-09-28T08:08:32.018Z,14.83
2022-09-28T08:11:01.127Z,14.79
2022-09-28T08:13:28.983Z,14.74
2022-09-28T08:16:01.354Z,14.61
2022-09-28T08:18:29.183Z,14.54
2022-09-28T08:21:14.488Z,14.70
2022-09-28T08:23:42.501Z,14.75
2022-09-28T08:26:15.403Z,15.03
2022-09-28T08:28:45.064Z,14.99
2022-09-28T08:31:13.132Z,14.71
2022-09-28T08:33:42.021Z,14.99
2022-09-28T08:36:11.289Z,15.13
2022-09-28T08:38:39.058Z,15.14
2022-09-28T08:41:17.597Z,15.15
2022-09-28T08:44:10.274Z,15.03
2022-09-28T08:46:41.954Z,14.75
2022-09-28T08:49:25.045Z,15.18
2022-09-28T08:51:59.047Z,15.10
2022-09-28T08:54:38.930Z,15.01
2022-09-28T08:57:13.614Z,15.16
2022-09-28T08:59:50.427Z,15.19
2022-09-28T09:02:23.994Z,15.33
2022-09-28T09:04:52.636Z,15.11
2022-09-28T09:07:43.007Z,14.97
2022-09-28T09:10:26.227Z,15.27
2022-09-28T09:13:05.845Z,15.53
2022-09-28T09:15:46.442Z,15.39
2022-09-28T09:18:22.363Z,15.73
2022-09-28T09:20:54.563Z,15.87
2022-09-28T09:23:36.455Z,15.79
2022-09-28T09:26:13.958Z,15.89
2022-09-28T09:29:03.149Z,15.48
2022-09-28T09:31:43.732Z,15.48
2022-09-28T09:34:39.506Z,15.76
2022-09-28T09:37:26.897Z,15.54
2022-09-28T09:40:19.270Z,15.79
2022-09-28T09:42:58.570Z,15.57
2022-09-28T09:45:42.675Z,15.62
2022-09-28T09:48:15.809Z,15.46
2022-09-28T09:50:49.585Z,15.32
2022-09-28T09:53:24.826Z,15.21
2022-09-28T09:55:57.308Z,15.03
2022-09-28T09:58:31.184Z,14.99
2022-09-28T10:01:17.163Z,14.87
2022-09-28T10:03:48.549Z,14.71
2022-09-28T10:06:20.563Z,14.89
2022-09-28T10:08:53.807Z,14.94
2022-09-28T10:11:26.578Z,14.85
2022-09-28T10:13:55.243Z,15.00
2022-09-28T10:16:24.916Z,14.90
2022-09-28T10:18:53.060Z,14.87
2022-09-28T10:21:23.461Z,14.58
2022-09-28T10:23:56.610Z,14.63
2022-09-28T10:26:30.019Z,14.77
2022-09-28T10:29:00.860Z,14.79
2022-09-28T10:31:38.250Z,14.73
2022-09-28T10:34:07.202Z,14.72
2022-09-28T10:36:47.251Z,14.69
2022-09-28T10:39:29.074Z,14.77
2022-09-28T10:41:59.698Z,14.72
2022-09-28T10:44:28.413Z,14.68
2022-09-28T10:47:03.567Z,15.02
2022-09-28T10:49:43.208Z,15.03
2022-09-28T10:52:32.479Z,15.04
2022-09-28T10:55:00.631Z,15.22
2022-09-28T10:57:30.705Z,15.50
2022-09-28T10:59:58.426Z,15.37
2022-09-28T11:02:35.486Z,14.56
2022-09-28T11:05:06.432Z,14.82
2022-09-28T11:07:45.462Z,15.07
2022-09-28T11:10:22.193Z,14.96
2022-09-28T11:12:51.198Z,15.10
2022-09-28T11:15:21.372Z,15.20
2022-09-28T11:17:50.529Z,15.14
2022-09-28T11:20:32.943Z,15.09
2022-09-28T11:23:05.528Z,14.64
2022-09-28T11:25:33.249Z,14.54
2022-09-28T11:28:04.802Z,14.32
2022-09-28T11:30:35.781Z,14.56
2022-09-28T11:33:09.231Z,15.01
2022-09-28T11:35:45.165Z,14.94
2022-09-28T11:38:33.967Z,15.30
2022-09-28T11:41:26.254Z,15.44
2022-09-28T11:44:33.361Z,15.84
2022-09-28T11:47:17.578Z,15.72
2022-09-28T11:49:52.257Z,15.37
2022-09-28T11:52:25.353Z,15.03
2022-09-28T11:54:56.703Z,14.70
2022-09-28T11:57:31.998Z,14.93
2022-09-28T12:00:03.747Z,15.34
2022-09-28T12:02:37.827Z,15.49
2022-09-28T12:05:20.658Z,15.60
2022-09-28T12:07:52.094Z,15.79
2022-09-28T12:10:28.098Z,15.83
2022-09-28T12:13:02.169Z,15.94
2022-09-28T12:16:07.448Z,15.62
2022-09-28T12:18:35.123Z,15.38
2022-09-28T12:21:16.110Z,15.12
2022-09-28T12:23:45.323Z,15.02
2022-09-28T12:26:27.828Z,15.25
2022-09-28T12:28:59.291Z,15.80
2022-09-28T12:31:41.814Z,16.14
2022-09-28T12:34:10.913Z,16.54
2022-09-28T12:36:54.811Z,16.72
2022-09-28T12:39:56.348Z,16.85
2022-09-28T12:42:46.749Z,16.77
2022-09-28T12:45:59.444Z,16.72
2022-09-28T12:48:58.413Z,15.82
2022-09-28T12:51:48.421Z,16.15
2022-09-28T12:54:39.920Z,15.64
2022-09-28T12:57:31.790Z,15.57
2022-09-28T13:00:06.142Z,16.09
2022-09-28T13:02:51.854Z,16.02
2022-09-28T13:05:45.589Z,16.60
2022-09-28T13:08:23.360Z,15.99
2022-09-28T13:11:07.563Z,16.10
2022-09-28T13:13:45.896Z,15.88
2022-09-28T13:16:23.788Z,15.98
2022-09-28T13:19:00.112Z,15.72
2022-09-28T13:21:36.010Z,15.65
2022-09-28T13:24:20.965Z,15.31
2022-09-28T13:26:59.466Z,15.41
2022-09-28T13:29:28.218Z,15.47
2022-09-28T13:31:59.615Z,15.31
2022-09-28T13:34:30.173Z,14.99
2022-09-28T13:37:20.929Z,15.59
2022-09-28T13:39:52.732Z,15.79
2022-09-28T13:42:54.165Z,15.96
2022-09-28T13:45:53.973Z,16.18
2022-09-28T13:48:24.282Z,16.56
2022-09-28T13:51:10.620Z,16.22
2022-09-28T13:54:01.663Z,16.42
2022-09-28T13:56:38.733Z,16.17
2022-09-28T13:59:17.147Z,16.47
2022-09-28T14:01:55.640Z,16.96
2022-09-28T14:04:25.623Z,17.12
2022-09-28T14:06:57.523Z,17.13
2022-09-28T14:09:42.345Z,17.05
2022-09-28T14:12:44.162Z,17.31
2022-09-28T14:15:53.666Z,17.68
2022-09-28T14:18:27.538Z,17.83
2022-09-28T14:21:10.415Z,17.96
2022-09-28T14:23:59.852Z,18.07
2022-09-28T14:26:57.877Z,18.25
2022-09-28T14:29:29.827Z,18.18
2022-09-28T14:31:59.231Z,17.84
2022-09-28T14:34:36.634Z,17.53
2022-09-28T14:37:24.804Z,16.97
2022-09-28T14:40:10.296Z,16.02
2022-09-28T14:42:38.093Z,15.81
2022-09-28T14:45:36.027Z,15.72
2022-09-28T14:48:22.999Z,15.20
2022-09-28T14:50:55.666Z,15.69
2022-09-28T14:53:25.017Z,15.78
2022-09-28T14:55:56.642Z,15.99
2022-09-28T14:58:27.484Z,16.71
2022-09-28T15:01:03.537Z,16.65
2022-09-28T15:03:34.331Z,16.57
2022-09-28T15:06:02.758Z,16.53
2022-09-28T15:08:38.529Z,16.73
2022-09-28T15:11:07.645Z,16.42
2022-09-28T15:13:35.381Z,16.20
2022-09-28T15:16:11.313Z,15.71
2022-09-28T15:19:11.368Z,15.62
2022-09-28T15:21:40.870Z,15.80
2022-09-28T15:24:28.883Z,16.09
2022-09-28T15:26:57.101Z,16.03
2022-09-28T15:29:27.128Z,16.46
2022-09-28T15:31:56.224Z,16.55
2022-09-28T15:34:49.830Z,16.28
2022-09-28T15:37:22.033Z,16.41
2022-09-28T15:39:51.461Z,16.50
2022-09-28T15:42:20.287Z,16.31
2022-09-28T15:45:06.097Z,16.45
2022-09-28T15:47:36.163Z,16.80
2022-09-28T15:50:09.127Z,16.64
2022-09-28T15:52:40.617Z,16.29
2022-09-28T15:55:21.875Z,15.78
2022-09-28T15:57:50.215Z,16.24
2022-09-28T16:00:26.304Z,16.00
2022-09-28T16:03:05.385Z,16.20
2022-09-28T16:05:39.177Z,16.05
2022-09-28T16:08:21.110Z,16.11
2022-09-28T16:10:57.377Z,16.05
2022-09-28T16:13:25.635Z,15.96
2022-09-28T16:15:59.731Z,16.10
2022-09-28T16:18:32.367Z,16.12
2022-09-28T16:21:24.279Z,15.82
2022-09-28T16:23:55.645Z,15.72
2022-09-28T16:26:32.166Z,15.81
2022-09-28T16:29:00.096Z,15.77
2022-09-28T16:31:34.728Z,15.61
2022-09-28T16:34:19.876Z,15.45
2022-09-28T16:36:49.788Z,15.21
2022-09-28T16:39:19.185Z,15.19
2022-09-28T16:41:49.705Z,15.50
2022-09-28T16:44:24.458Z,15.63
2022-09-28T16:46:55.024Z,15.37
2022-09-28T16:49:25.737Z,15.53
2022-09-28T16:51:53.849Z,15.41
2022-09-28T16:54:40.527Z,15.24
2022-09-28T16:57:10.976Z,15.24
2022-09-28T16:59:39.306Z,15.34
2022-09-28T17:02:45.163Z,15.36
2022-09-28T17:05:13.813Z,15.12
2022-09-28T17:07:42.101Z,15.43
2022-09-28T17:10:18.299Z,15.31
2022-09-28T17:12:46.347Z,15.42
2022-09-28T17:15:19.362Z,15.58
2022-09-28T17:17:47.154Z,15.40
2022-09-28T17:20:22.386Z,15.28
2022-09-28T17:22:50.126Z,15.29
2022-09-28T17:25:18.457Z,15.36
2022-09-28T17:27:49.099Z,15.00
2022-09-28T17:30:18.875Z,15.14
2022-09-28T17:32:48.097Z,15.23
2022-09-28T17:35:26.243Z,14.88
2022-09-28T17:37:54.303Z,15.05
2022-09-28T17:40:24.464Z,15.06
2022-09-28T17:42:55.026Z,15.15
2022-09-28T17:45:23.470Z,14.79
2022-09-28T17:47:51.269Z,14.97
2022-09-28T17:50:23.992Z,14.85
2022-09-28T17:52:53.046Z,14.95
2022-09-28T17:55:22.745Z,14.83
2022-09-28T17:57:51.484Z,14.74
2022-09-28T18:00:19.464Z,14.96
2022-09-28T18:02:47.783Z,14.59
2022-09-28T18:05:15.658Z,14.79
2022-09-28T18:07:47.675Z,14.60
2022-09-28T18:10:17.353Z,14.45
2022-09-28T18:12:45.222Z,14.45
2022-09-28T18:15:13.588Z,14.05
2022-09-28T18:17:41.621Z,14.61
2022-09-28T18:20:11.125Z,14.59
2022-09-28T18:22:38.912Z,14.31
2022-09-28T18:25:09.129Z,14.45
2022-09-28T18:27:37.264Z,14.59
2022-09-28T18:30:06.161Z,14.68
2022-09-28T18:32:36.758Z,14.58
2022-09-28T18:35:04.706Z,14.29
2022-09-28T18:37:36.016Z,14.41
2022-09-28T18:40:03.730Z,14.53
2022-09-28T18:42:35.513Z,14.56
2022-09-28T18:45:03.287Z,14.32
2022-09-28T18:47:30.957Z,14.32
2022-09-28T18:49:58.782Z,14.18
2022-09-28T18:52:26.666Z,14.18
2022-09-28T18:54:54.721Z,14.07
2022-09-28T18:57:22.557Z,13.83
2022-09-28T18:59:51.609Z,13.97
2022-09-28T19:02:19.397Z,14.05
2022-09-28T19:04:47.138Z,13.90
2022-09-28T19:07:14.897Z,14.08
2022-09-28T19:09:44.165Z,13.97
2022-09-28T19:12:12.343Z,14.11
2022-09-28T19:14:40.190Z,14.02
2022-09-28T19:17:09.997Z,13.77
2022-09-28T19:19:37.709Z,13.88
2022-09-28T19:22:06.066Z,13.89
2022-09-28T19:24:33.885Z,13.90
2022-09-28T19:27:01.750Z,14.00
2022-09-28T19:29:29.454Z,14.17
2022-09-28T19:31:58.002Z,14.05
2022-09-28T19:34:29.971Z,13.89
2022-09-28T19:36:57.899Z,14.20
2022-09-28T19:39:25.577Z,13.82
2022-09-28T19:41:53.346Z,13.66
2022-09-28T19:44:25.640Z,13.97
2022-09-28T19:46:55.306Z,13.93
2022-09-28T19:49:23.952Z,13.98
2022-09-28T19:52:14.277Z,13.93
2022-09-28T19:54:44.636Z,14.13
2022-09-28T19:57:15.858Z,13.93
2022-09-28T19:59:43.925Z,14.17
2022-09-28T20:02:11.931Z,14.01
2022-09-28T20:04:39.721Z,13.89
2022-09-28T20:07:08.838Z,13.76
2022-09-28T20:09:36.559Z,13.93
2022-09-28T20:12:04.483Z,13.82
2022-09-28T20:14:36.485Z,13.96
2022-09-28T20:17:07.308Z,14.22
2022-09-28T20:19:35.992Z,14.05
2022-09-28T20:22:03.727Z,13.98
2022-09-28T20:24:33.523Z,13.79
2022-09-28T20:27:02.723Z,13.84
2022-09-28T20:29:31.460Z,13.85
2022-09-28T20:31:59.413Z,13.70
2022-09-28T20:34:27.214Z,13.61
2022-09-28T20:36:54.934Z,13.71
2022-09-28T20:39:22.634Z,13.55
2022-09-28T20:41:51.797Z,13.86
2022-09-28T20:44:19.648Z,13.68
2022-09-28T20:46:51.281Z,13.53
2022-09-28T20:49:18.952Z,13.85
2022-09-28T20:51:46.686Z,13.77
2022-09-28T20:54:14.502Z,13.68
2022-09-28T20:56:42.190Z,13.76
2022-09-28T20:59:12.822Z,13.63
2022-09-28T21:01:41.330Z,13.71
2022-09-28T21:04:11.043Z,13.85
2022-09-28T21:06:40.502Z,13.75
2022-09-28T21:09:09.884Z,13.77
2022-09-28T21:11:38.828Z,13.65
2022-09-28T21:14:09.277Z,13.55
2022-09-28T21:16:39.032Z,13.51
2022-09-28T21:19:06.709Z,13.47
2022-09-28T21:21:34.585Z,13.28
2022-09-28T21:24:03.062Z,13.18
2022-09-28T21:26:32.224Z,13.15
2022-09-28T21:29:01.387Z,13.27
2022-09-28T21:31:32.591Z,13.43
2022-09-28T21:34:04.530Z,13.51
2022-09-28T21:36:33.062Z,13.56
2022-09-28T21:39:00.717Z,13.16
2022-09-28T21:41:29.075Z,13.19
2022-09-28T21:43:57.031Z,13.28
2022-09-28T21:46:24.779Z,13.15
2022-09-28T21:48:53.840Z,13.03
2022-09-28T21:51:22.949Z,13.18
2022-09-28T21:53:50.704Z,13.28
2022-09-28T21:56:18.805Z,13.20
2022-09-28T21:58:46.570Z,13.37
2022-09-28T22:01:16.785Z,13.26
2022-09-28T22:03:47.354Z,12.80
2022-09-28T22:06:16.150Z,13.08
2022-09-28T22:08:45.917Z,12.89
2022-09-28T22:11:15.450Z,12.55
2022-09-28T22:13:45.342Z,12.95
2022-09-28T22:16:14.985Z,12.75
2022-09-28T22:18:43.566Z,12.80
2022-09-28T22:21:13.577Z,12.80
2022-09-28T22:23:41.657Z,12.57
2022-09-28T22:26:14.569Z,12.72
2022-09-28T22:28:46.787Z,12.41
2022-09-28T22:31:14.856Z,12.54
2022-09-28T22:33:42.730Z,12.45
2022-09-28T22:36:10.663Z,12.39
2022-09-28T22:38:39.366Z,12.17
2022-09-28T22:41:07.233Z,12.24
2022-09-28T22:43:36.355Z,12.49
2022-09-28T22:46:05.712Z,12.51
2022-09-28T22:48:34.357Z,12.60
2022-09-28T22:51:02.986Z,12.61
2022-09-28T22:53:30.785Z,12.60
2022-09-28T22:55:59.871Z,12.76
2022-09-28T22:58:27.674Z,12.76
2022-09-28T23:00:57.836Z,12.71
2022-09-28T23:03:25.698Z,12.74
2022-09-28T23:05:54.211Z,12.81
2022-09-28T23:08:22.521Z,12.90
2022-09-28T23:10:50.453Z,12.69
2022-09-28T23:13:19.051Z,12.83
2022-09-28T23:15:57.360Z,12.64
2022-09-28T23:18:26.064Z,12.79
2022-09-28T23:20:54.909Z,12.99
2022-09-28T23:23:22.922Z,12.97
2022-09-28T23:25:50.665Z,12.85
2022-09-28T23:28:18.833Z,12.81
2022-09-28T23:30:47.231Z,12.82
2022-09-28T23:33:17.661Z,12.71
2022-09-28T23:35:46.015Z,12.66
2022-09-28T23:38:14.368Z,12.39
2022-09-28T23:40:42.736Z,12.49
2022-09-28T23:43:10.530Z,12.50
2022-09-28T23:45:38.316Z,12.33
2022-09-28T23:48:06.257Z,12.30
2022-09-28T23:50:35.349Z,12.39
2022-09-28T23:53:03.054Z,12.07
2022-09-28T23:55:30.714Z,12.30
2022-09-28T23:57:58.706Z,12.26
